KBLI/BLI METAR and TAF weather

Enter ICAO airport designator
Station Type Date Time Source
KBLI METAR 2024/04/17 17:53 UTC NOAA

KBLI 171753Z 04009KT 10SM CLR 11/02 A3048 RMK AO2 SLP331 T01110017 10111 20000 50006


Station Type Date Time Source
KBLI Decoded METAR 2024/04/17 17:53 UTC NOAA

BELLINGHAM INTERNATIONAL AIRPORT, WA, United States (KBLI) 48-48N 122-32W 50M
Apr 17, 2024 - 01:53 PM EDT / 2024.04.17 1753 UTC
Wind: from the NE (040 degrees) at 10 MPH (9 KT):0
Visibility: 10 mile(s):0
Sky conditions: clear
Temperature: 52.0 F (11.1 C)
Dew Point: 35.1 F (1.7 C)
Relative Humidity: 52%
Pressure (altimeter): 30.48 in. Hg (1032 hPa)
Pressure tendency: 0.02 inches (0.6 hPa) higher than three hours ago
ob: KBLI 171753Z 04009KT 10SM CLR 11/02 A3048 RMK AO2 SLP331 T01110017 10111 20000 50006
cycle: 18

Station Type Date Time Source
KBLI TAF 2024/04/17 18:22 UTC NOAA